sensor_id;sensor_type;location;lat;lon;timestamp;P1;durP1;ratioP1;P2;durP2;ratioP2
11614;SDS011;5863;52.832;4.758;2023-01-08T00:00:56;13.13;;;2.55;;
11614;SDS011;5863;52.832;4.758;2023-01-08T00:03:23;19.23;;;2.70;;
11614;SDS011;5863;52.832;4.758;2023-01-08T00:05:50;16.52;;;3.90;;
11614;SDS011;5863;52.832;4.758;2023-01-08T00:08:16;16.90;;;2.95;;
11614;SDS011;5863;52.832;4.758;2023-01-08T00:10:43;12.20;;;2.80;;
11614;SDS011;5863;52.832;4.758;2023-01-08T00:13:12;17.15;;;3.42;;
11614;SDS011;5863;52.832;4.758;2023-01-08T00:15:39;12.27;;;3.55;;
11614;SDS011;5863;52.832;4.758;2023-01-08T00:18:05;13.45;;;3.05;;
11614;SDS011;5863;52.832;4.758;2023-01-08T00:20:32;14.00;;;3.50;;
11614;SDS011;5863;52.832;4.758;2023-01-08T00:22:59;15.60;;;2.78;;
11614;SDS011;5863;52.832;4.758;2023-01-08T00:25:25;18.42;;;3.15;;
11614;SDS011;5863;52.832;4.758;2023-01-08T00:27:54;17.75;;;3.10;;
11614;SDS011;5863;52.832;4.758;2023-01-08T00:30:22;18.63;;;3.60;;
11614;SDS011;5863;52.832;4.758;2023-01-08T00:32:49;21.08;;;3.30;;
11614;SDS011;5863;52.832;4.758;2023-01-08T00:35:15;20.88;;;3.63;;
11614;SDS011;5863;52.832;4.758;2023-01-08T00:37:42;18.67;;;4.05;;
11614;SDS011;5863;52.832;4.758;2023-01-08T00:40:09;19.77;;;3.72;;
11614;SDS011;5863;52.832;4.758;2023-01-08T00:42:36;19.45;;;4.30;;
11614;SDS011;5863;52.832;4.758;2023-01-08T00:45:03;19.83;;;3.80;;
11614;SDS011;5863;52.832;4.758;2023-01-08T00:47:31;22.00;;;3.60;;
11614;SDS011;5863;52.832;4.758;2023-01-08T00:49:58;23.67;;;3.95;;
11614;SDS011;5863;52.832;4.758;2023-01-08T00:52:25;20.67;;;3.70;;
11614;SDS011;5863;52.832;4.758;2023-01-08T00:54:51;24.33;;;4.05;;
11614;SDS011;5863;52.832;4.758;2023-01-08T00:57:18;17.55;;;4.07;;
11614;SDS011;5863;52.832;4.758;2023-01-08T00:59:45;20.40;;;3.50;;
11614;SDS011;5863;52.832;4.758;2023-01-08T01:02:11;18.77;;;3.47;;
11614;SDS011;5863;52.832;4.758;2023-01-08T01:04:39;20.85;;;4.22;;
11614;SDS011;5863;52.832;4.758;2023-01-08T01:07:06;17.52;;;3.22;;
11614;SDS011;5863;52.832;4.758;2023-01-08T01:09:33;16.13;;;4.10;;
11614;SDS011;5863;52.832;4.758;2023-01-08T01:11:59;17.63;;;3.40;;
11614;SDS011;5863;52.832;4.758;2023-01-08T01:14:26;23.17;;;3.80;;
11614;SDS011;5863;52.832;4.758;2023-01-08T01:16:54;19.55;;;3.63;;
11614;SDS011;5863;52.832;4.758;2023-01-08T01:19:21;29.70;;;4.70;;
11614;SDS011;5863;52.832;4.758;2023-01-08T01:21:49;18.00;;;3.30;;
11614;SDS011;5863;52.832;4.758;2023-01-08T01:24:16;21.67;;;5.32;;
11614;SDS011;5863;52.832;4.758;2023-01-08T01:26:42;26.27;;;4.57;;
11614;SDS011;5863;52.832;4.758;2023-01-08T01:29:09;27.58;;;4.25;;
11614;SDS011;5863;52.832;4.758;2023-01-08T01:31:36;19.52;;;4.05;;
11614;SDS011;5863;52.832;4.758;2023-01-08T01:34:02;25.15;;;4.05;;
11614;SDS011;5863;52.832;4.758;2023-01-08T01:36:29;19.02;;;3.65;;
11614;SDS011;5863;52.832;4.758;2023-01-08T01:38:58;17.38;;;3.80;;
11614;SDS011;5863;52.832;4.758;2023-01-08T01:41:26;22.70;;;3.88;;
11614;SDS011;5863;52.832;4.758;2023-01-08T01:43:54;23.83;;;4.40;;
11614;SDS011;5863;52.832;4.758;2023-01-08T01:46:25;19.95;;;4.05;;
11614;SDS011;5863;52.832;4.758;2023-01-08T01:49:07;18.05;;;4.50;;
11614;SDS011;5863;52.832;4.758;2023-01-08T01:51:36;22.83;;;3.88;;
11614;SDS011;5863;52.832;4.758;2023-01-08T01:54:08;16.63;;;3.50;;
11614;SDS011;5863;52.832;4.758;2023-01-08T01:56:36;20.47;;;4.63;;
11614;SDS011;5863;52.832;4.758;2023-01-08T01:59:03;21.65;;;3.50;;
11614;SDS011;5863;52.832;4.758;2023-01-08T02:01:31;22.50;;;4.10;;
11614;SDS011;5863;52.832;4.758;2023-01-08T02:03:59;18.67;;;3.40;;
11614;SDS011;5863;52.832;4.758;2023-01-08T02:06:30;21.83;;;3.58;;
11614;SDS011;5863;52.832;4.758;2023-01-08T02:09:02;12.20;;;3.25;;
11614;SDS011;5863;52.832;4.758;2023-01-08T02:11:38;17.33;;;3.25;;
11614;SDS011;5863;52.832;4.758;2023-01-08T02:14:13;16.75;;;3.38;;
11614;SDS011;5863;52.832;4.758;2023-01-08T02:16:49;12.50;;;2.95;;
11614;SDS011;5863;52.832;4.758;2023-01-08T02:19:24;15.40;;;3.40;;
11614;SDS011;5863;52.832;4.758;2023-01-08T02:22:05;14.50;;;2.70;;
11614;SDS011;5863;52.832;4.758;2023-01-08T02:24:45;14.35;;;2.75;;
11614;SDS011;5863;52.832;4.758;2023-01-08T02:27:21;18.58;;;3.60;;
11614;SDS011;5863;52.832;4.758;2023-01-08T02:29:50;15.57;;;3.28;;
11614;SDS011;5863;52.832;4.758;2023-01-08T02:32:21;13.52;;;3.13;;
11614;SDS011;5863;52.832;4.758;2023-01-08T02:34:50;12.13;;;2.78;;
11614;SDS011;5863;52.832;4.758;2023-01-08T02:37:17;20.08;;;3.97;;
11614;SDS011;5863;52.832;4.758;2023-01-08T02:39:46;17.33;;;3.00;;
11614;SDS011;5863;52.832;4.758;2023-01-08T02:42:24;21.17;;;3.40;;
11614;SDS011;5863;52.832;4.758;2023-01-08T02:45:00;10.68;;;3.58;;
11614;SDS011;5863;52.832;4.758;2023-01-08T02:47:33;21.88;;;3.65;;
11614;SDS011;5863;52.832;4.758;2023-01-08T02:50:06;14.32;;;3.42;;
11614;SDS011;5863;52.832;4.758;2023-01-08T02:52:39;18.58;;;2.88;;
11614;SDS011;5863;52.832;4.758;2023-01-08T02:55:10;14.45;;;2.83;;
11614;SDS011;5863;52.832;4.758;2023-01-08T02:57:39;12.87;;;2.93;;
11614;SDS011;5863;52.832;4.758;2023-01-08T03:00:07;24.95;;;3.15;;
11614;SDS011;5863;52.832;4.758;2023-01-08T03:02:34;16.38;;;3.47;;
11614;SDS011;5863;52.832;4.758;2023-01-08T03:05:06;15.00;;;4.05;;
11614;SDS011;5863;52.832;4.758;2023-01-08T03:07:38;19.65;;;3.20;;
11614;SDS011;5863;52.832;4.758;2023-01-08T03:10:05;16.70;;;3.45;;
11614;SDS011;5863;52.832;4.758;2023-01-08T03:12:38;18.23;;;2.80;;
11614;SDS011;5863;52.832;4.758;2023-01-08T03:15:15;16.02;;;4.15;;
11614;SDS011;5863;52.832;4.758;2023-01-08T03:17:48;20.98;;;3.55;;
11614;SDS011;5863;52.832;4.758;2023-01-08T03:20:18;15.23;;;2.83;;
11614;SDS011;5863;52.832;4.758;2023-01-08T03:22:47;13.05;;;3.22;;
11614;SDS011;5863;52.832;4.758;2023-01-08T03:25:16;12.80;;;2.92;;
11614;SDS011;5863;52.832;4.758;2023-01-08T03:27:49;12.75;;;2.85;;
11614;SDS011;5863;52.832;4.758;2023-01-08T03:30:20;12.80;;;3.05;;
11614;SDS011;5863;52.832;4.758;2023-01-08T03:32:47;16.23;;;4.30;;
11614;SDS011;5863;52.832;4.758;2023-01-08T03:35:16;21.97;;;3.40;;
11614;SDS011;5863;52.832;4.758;2023-01-08T03:37:48;12.15;;;2.72;;
11614;SDS011;5863;52.832;4.758;2023-01-08T03:40:20;18.23;;;2.90;;
11614;SDS011;5863;52.832;4.758;2023-01-08T03:42:51;11.70;;;2.47;;
11614;SDS011;5863;52.832;4.758;2023-01-08T03:45:18;10.45;;;2.92;;
11614;SDS011;5863;52.832;4.758;2023-01-08T03:47:46;18.15;;;2.97;;
11614;SDS011;5863;52.832;4.758;2023-01-08T03:50:16;14.30;;;3.33;;
11614;SDS011;5863;52.832;4.758;2023-01-08T03:52:48;11.02;;;2.97;;
11614;SDS011;5863;52.832;4.758;2023-01-08T03:55:14;12.88;;;2.55;;
11614;SDS011;5863;52.832;4.758;2023-01-08T03:57:41;10.63;;;2.58;;
11614;SDS011;5863;52.832;4.758;2023-01-08T04:00:10;9.40;;;2.70;;
11614;SDS011;5863;52.832;4.758;2023-01-08T04:02:37;10.88;;;2.83;;
11614;SDS011;5863;52.832;4.758;2023-01-08T04:05:06;11.30;;;2.47;;
11614;SDS011;5863;52.832;4.758;2023-01-08T04:07:33;7.72;;;2.45;;
11614;SDS011;5863;52.832;4.758;2023-01-08T04:09:59;9.82;;;2.45;;
11614;SDS011;5863;52.832;4.758;2023-01-08T04:12:26;6.57;;;2.15;;
11614;SDS011;5863;52.832;4.758;2023-01-08T04:14:53;9.00;;;2.33;;
11614;SDS011;5863;52.832;4.758;2023-01-08T04:17:21;13.55;;;2.80;;
11614;SDS011;5863;52.832;4.758;2023-01-08T04:19:56;7.45;;;2.40;;
11614;SDS011;5863;52.832;4.758;2023-01-08T04:22:23;8.32;;;2.08;;
11614;SDS011;5863;52.832;4.758;2023-01-08T04:24:50;8.95;;;2.83;;
11614;SDS011;5863;52.832;4.758;2023-01-08T04:27:16;6.70;;;2.60;;
11614;SDS011;5863;52.832;4.758;2023-01-08T04:29:44;13.40;;;3.28;;
11614;SDS011;5863;52.832;4.758;2023-01-08T04:32:11;7.20;;;2.47;;
11614;SDS011;5863;52.832;4.758;2023-01-08T04:34:39;10.45;;;2.50;;
11614;SDS011;5863;52.832;4.758;2023-01-08T04:37:05;9.30;;;2.70;;
11614;SDS011;5863;52.832;4.758;2023-01-08T04:39:32;8.73;;;2.60;;
11614;SDS011;5863;52.832;4.758;2023-01-08T04:41:59;13.68;;;2.63;;
11614;SDS011;5863;52.832;4.758;2023-01-08T04:44:25;7.47;;;2.95;;
11614;SDS011;5863;52.832;4.758;2023-01-08T04:46:52;8.98;;;2.47;;
11614;SDS011;5863;52.832;4.758;2023-01-08T04:49:18;8.27;;;2.67;;
11614;SDS011;5863;52.832;4.758;2023-01-08T04:51:46;6.10;;;2.40;;
11614;SDS011;5863;52.832;4.758;2023-01-08T04:54:13;9.13;;;2.45;;
11614;SDS011;5863;52.832;4.758;2023-01-08T04:56:40;12.35;;;2.50;;
11614;SDS011;5863;52.832;4.758;2023-01-08T04:59:07;7.97;;;2.47;;
11614;SDS011;5863;52.832;4.758;2023-01-08T05:01:34;12.15;;;2.45;;
11614;SDS011;5863;52.832;4.758;2023-01-08T05:04:02;9.65;;;2.88;;
11614;SDS011;5863;52.832;4.758;2023-01-08T05:06:29;11.02;;;2.42;;
11614;SDS011;5863;52.832;4.758;2023-01-08T05:08:58;14.68;;;2.40;;
11614;SDS011;5863;52.832;4.758;2023-01-08T05:11:25;10.38;;;2.47;;
11614;SDS011;5863;52.832;4.758;2023-01-08T05:13:52;14.93;;;2.70;;
11614;SDS011;5863;52.832;4.758;2023-01-08T05:16:19;11.93;;;2.17;;
11614;SDS011;5863;52.832;4.758;2023-01-08T05:18:46;13.38;;;2.53;;
11614;SDS011;5863;52.832;4.758;2023-01-08T05:21:13;9.55;;;2.60;;
11614;SDS011;5863;52.832;4.758;2023-01-08T05:23:42;13.50;;;2.90;;
11614;SDS011;5863;52.832;4.758;2023-01-08T05:26:11;9.32;;;2.25;;
11614;SDS011;5863;52.832;4.758;2023-01-08T05:28:43;13.63;;;2.10;;
11614;SDS011;5863;52.832;4.758;2023-01-08T05:31:10;18.35;;;2.05;;
11614;SDS011;5863;52.832;4.758;2023-01-08T05:33:37;11.77;;;2.88;;
11614;SDS011;5863;52.832;4.758;2023-01-08T05:36:04;9.63;;;2.60;;
11614;SDS011;5863;52.832;4.758;2023-01-08T05:38:31;14.93;;;2.50;;
11614;SDS011;5863;52.832;4.758;2023-01-08T05:40:58;15.90;;;2.25;;
11614;SDS011;5863;52.832;4.758;2023-01-08T05:43:27;12.67;;;2.43;;
11614;SDS011;5863;52.832;4.758;2023-01-08T05:45:53;11.73;;;2.03;;
11614;SDS011;5863;52.832;4.758;2023-01-08T05:48:22;11.90;;;2.77;;
11614;SDS011;5863;52.832;4.758;2023-01-08T05:50:49;18.40;;;2.73;;
11614;SDS011;5863;52.832;4.758;2023-01-08T05:53:15;14.02;;;2.78;;
11614;SDS011;5863;52.832;4.758;2023-01-08T05:55:42;7.40;;;1.92;;
11614;SDS011;5863;52.832;4.758;2023-01-08T05:58:09;14.70;;;3.03;;
11614;SDS011;5863;52.832;4.758;2023-01-08T06:00:38;12.67;;;2.67;;
11614;SDS011;5863;52.832;4.758;2023-01-08T06:03:04;18.03;;;2.90;;
11614;SDS011;5863;52.832;4.758;2023-01-08T06:05:31;13.77;;;2.90;;
11614;SDS011;5863;52.832;4.758;2023-01-08T06:07:59;15.70;;;3.20;;
11614;SDS011;5863;52.832;4.758;2023-01-08T06:10:26;10.93;;;2.40;;
11614;SDS011;5863;52.832;4.758;2023-01-08T06:12:53;16.77;;;2.83;;
11614;SDS011;5863;52.832;4.758;2023-01-08T06:15:20;15.10;;;2.67;;
11614;SDS011;5863;52.832;4.758;2023-01-08T06:17:48;12.57;;;2.17;;
11614;SDS011;5863;52.832;4.758;2023-01-08T06:20:15;15.33;;;2.70;;
11614;SDS011;5863;52.832;4.758;2023-01-08T06:22:42;14.90;;;3.03;;
11614;SDS011;5863;52.832;4.758;2023-01-08T06:25:09;17.67;;;2.97;;
11614;SDS011;5863;52.832;4.758;2023-01-08T06:27:35;12.00;;;2.67;;
11614;SDS011;5863;52.832;4.758;2023-01-08T06:30:02;10.37;;;2.30;;
11614;SDS011;5863;52.832;4.758;2023-01-08T06:32:30;13.13;;;2.90;;
11614;SDS011;5863;52.832;4.758;2023-01-08T06:34:58;17.10;;;2.50;;
11614;SDS011;5863;52.832;4.758;2023-01-08T06:37:24;12.13;;;2.40;;
11614;SDS011;5863;52.832;4.758;2023-01-08T06:39:51;12.57;;;1.87;;
11614;SDS011;5863;52.832;4.758;2023-01-08T06:42:17;11.17;;;2.53;;
11614;SDS011;5863;52.832;4.758;2023-01-08T06:44:44;15.27;;;2.70;;
11614;SDS011;5863;52.832;4.758;2023-01-08T06:47:11;10.93;;;2.50;;
11614;SDS011;5863;52.832;4.758;2023-01-08T06:49:37;11.50;;;2.47;;
11614;SDS011;5863;52.832;4.758;2023-01-08T06:52:05;8.83;;;2.13;;
11614;SDS011;5863;52.832;4.758;2023-01-08T06:54:32;9.33;;;2.30;;
11614;SDS011;5863;52.832;4.758;2023-01-08T06:56:59;12.50;;;2.70;;
11614;SDS011;5863;52.832;4.758;2023-01-08T06:59:26;9.07;;;2.10;;
11614;SDS011;5863;52.832;4.758;2023-01-08T07:01:53;7.30;;;2.07;;
11614;SDS011;5863;52.832;4.758;2023-01-08T07:04:19;10.90;;;2.17;;
11614;SDS011;5863;52.832;4.758;2023-01-08T07:06:46;9.17;;;2.20;;
11614;SDS011;5863;52.832;4.758;2023-01-08T07:09:14;7.87;;;1.93;;
11614;SDS011;5863;52.832;4.758;2023-01-08T07:11:41;10.43;;;2.27;;
11614;SDS011;5863;52.832;4.758;2023-01-08T07:14:07;9.57;;;2.50;;
11614;SDS011;5863;52.832;4.758;2023-01-08T07:16:34;16.27;;;2.60;;
11614;SDS011;5863;52.832;4.758;2023-01-08T07:19:02;13.80;;;3.17;;
11614;SDS011;5863;52.832;4.758;2023-01-08T07:21:29;10.87;;;2.27;;
11614;SDS011;5863;52.832;4.758;2023-01-08T07:23:55;15.70;;;2.57;;
11614;SDS011;5863;52.832;4.758;2023-01-08T07:26:24;12.67;;;2.33;;
11614;SDS011;5863;52.832;4.758;2023-01-08T07:28:51;13.53;;;2.80;;
11614;SDS011;5863;52.832;4.758;2023-01-08T07:31:18;11.70;;;2.40;;
11614;SDS011;5863;52.832;4.758;2023-01-08T07:33:45;12.30;;;2.83;;
11614;SDS011;5863;52.832;4.758;2023-01-08T07:36:11;12.87;;;2.67;;
11614;SDS011;5863;52.832;4.758;2023-01-08T07:38:39;13.67;;;2.77;;
11614;SDS011;5863;52.832;4.758;2023-01-08T07:41:07;11.63;;;2.43;;
11614;SDS011;5863;52.832;4.758;2023-01-08T07:43:35;10.83;;;2.20;;
11614;SDS011;5863;52.832;4.758;2023-01-08T07:46:01;13.43;;;2.93;;
11614;SDS011;5863;52.832;4.758;2023-01-08T07:48:29;8.90;;;2.83;;
11614;SDS011;5863;52.832;4.758;2023-01-08T07:50:59;10.60;;;2.47;;
11614;SDS011;5863;52.832;4.758;2023-01-08T07:53:27;17.63;;;3.27;;
11614;SDS011;5863;52.832;4.758;2023-01-08T07:55:57;11.30;;;2.60;;
11614;SDS011;5863;52.832;4.758;2023-01-08T07:58:24;12.50;;;2.57;;
11614;SDS011;5863;52.832;4.758;2023-01-08T08:00:53;14.90;;;2.73;;
11614;SDS011;5863;52.832;4.758;2023-01-08T08:03:19;9.57;;;2.63;;
11614;SDS011;5863;52.832;4.758;2023-01-08T08:05:46;11.77;;;2.93;;
11614;SDS011;5863;52.832;4.758;2023-01-08T08:08:13;18.97;;;2.43;;
11614;SDS011;5863;52.832;4.758;2023-01-08T08:10:40;13.80;;;2.67;;
11614;SDS011;5863;52.832;4.758;2023-01-08T08:13:08;18.27;;;2.93;;
11614;SDS011;5863;52.832;4.758;2023-01-08T08:15:35;10.97;;;2.80;;
11614;SDS011;5863;52.832;4.758;2023-01-08T08:18:04;8.83;;;2.13;;
11614;SDS011;5863;52.832;4.758;2023-01-08T08:20:31;15.30;;;2.80;;
11614;SDS011;5863;52.832;4.758;2023-01-08T08:23:01;12.47;;;2.77;;
11614;SDS011;5863;52.832;4.758;2023-01-08T08:25:29;13.07;;;2.53;;
11614;SDS011;5863;52.832;4.758;2023-01-08T08:27:57;16.97;;;3.40;;
11614;SDS011;5863;52.832;4.758;2023-01-08T08:30:24;10.33;;;2.20;;
11614;SDS011;5863;52.832;4.758;2023-01-08T08:32:51;13.67;;;2.73;;
11614;SDS011;5863;52.832;4.758;2023-01-08T08:35:20;14.47;;;2.80;;
11614;SDS011;5863;52.832;4.758;2023-01-08T08:37:47;12.53;;;3.20;;
11614;SDS011;5863;52.832;4.758;2023-01-08T08:40:14;9.17;;;2.67;;
11614;SDS011;5863;52.832;4.758;2023-01-08T08:42:40;8.67;;;2.30;;
11614;SDS011;5863;52.832;4.758;2023-01-08T08:45:07;10.60;;;2.73;;
11614;SDS011;5863;52.832;4.758;2023-01-08T08:47:34;13.10;;;2.60;;
11614;SDS011;5863;52.832;4.758;2023-01-08T08:50:01;10.93;;;2.23;;
11614;SDS011;5863;52.832;4.758;2023-01-08T08:52:29;15.50;;;3.87;;
11614;SDS011;5863;52.832;4.758;2023-01-08T08:54:57;16.37;;;2.73;;
11614;SDS011;5863;52.832;4.758;2023-01-08T08:57:24;9.93;;;2.30;;
11614;SDS011;5863;52.832;4.758;2023-01-08T08:59:52;12.63;;;2.20;;
11614;SDS011;5863;52.832;4.758;2023-01-08T09:02:21;11.90;;;2.03;;
11614;SDS011;5863;52.832;4.758;2023-01-08T09:04:48;8.37;;;2.40;;
11614;SDS011;5863;52.832;4.758;2023-01-08T09:07:15;7.63;;;2.50;;
11614;SDS011;5863;52.832;4.758;2023-01-08T09:09:43;9.30;;;2.33;;
11614;SDS011;5863;52.832;4.758;2023-01-08T09:12:09;8.93;;;2.37;;
11614;SDS011;5863;52.832;4.758;2023-01-08T09:14:36;11.77;;;2.27;;
11614;SDS011;5863;52.832;4.758;2023-01-08T09:17:03;9.40;;;2.43;;
11614;SDS011;5863;52.832;4.758;2023-01-08T09:19:29;17.13;;;2.80;;
11614;SDS011;5863;52.832;4.758;2023-01-08T09:21:57;12.47;;;2.40;;
11614;SDS011;5863;52.832;4.758;2023-01-08T09:24:23;14.17;;;2.67;;
11614;SDS011;5863;52.832;4.758;2023-01-08T09:26:52;15.00;;;2.23;;
11614;SDS011;5863;52.832;4.758;2023-01-08T09:29:19;7.13;;;2.07;;
11614;SDS011;5863;52.832;4.758;2023-01-08T09:31:46;10.07;;;2.40;;
11614;SDS011;5863;52.832;4.758;2023-01-08T09:34:13;10.03;;;2.03;;
11614;SDS011;5863;52.832;4.758;2023-01-08T09:36:39;11.93;;;2.40;;
11614;SDS011;5863;52.832;4.758;2023-01-08T09:39:06;11.23;;;2.67;;
11614;SDS011;5863;52.832;4.758;2023-01-08T09:41:33;12.77;;;2.70;;
11614;SDS011;5863;52.832;4.758;2023-01-08T09:44:04;11.18;;;2.70;;
11614;SDS011;5863;52.832;4.758;2023-01-08T09:46:32;11.33;;;2.60;;
11614;SDS011;5863;52.832;4.758;2023-01-08T09:49:03;15.87;;;2.50;;
11614;SDS011;5863;52.832;4.758;2023-01-08T09:51:32;8.70;;;2.43;;
11614;SDS011;5863;52.832;4.758;2023-01-08T09:54:01;9.90;;;2.47;;
11614;SDS011;5863;52.832;4.758;2023-01-08T09:56:29;12.80;;;2.27;;
11614;SDS011;5863;52.832;4.758;2023-01-08T09:58:59;8.67;;;2.30;;
11614;SDS011;5863;52.832;4.758;2023-01-08T10:01:30;9.60;;;2.37;;
11614;SDS011;5863;52.832;4.758;2023-01-08T10:04:02;9.37;;;2.53;;
11614;SDS011;5863;52.832;4.758;2023-01-08T10:06:31;10.53;;;2.33;;
11614;SDS011;5863;52.832;4.758;2023-01-08T10:08:58;8.82;;;2.00;;
11614;SDS011;5863;52.832;4.758;2023-01-08T10:11:25;14.97;;;2.30;;
11614;SDS011;5863;52.832;4.758;2023-01-08T10:13:57;8.50;;;2.60;;
11614;SDS011;5863;52.832;4.758;2023-01-08T10:16:25;8.07;;;1.80;;
11614;SDS011;5863;52.832;4.758;2023-01-08T10:18:56;11.50;;;2.07;;
11614;SDS011;5863;52.832;4.758;2023-01-08T10:21:26;11.63;;;2.37;;
11614;SDS011;5863;52.832;4.758;2023-01-08T10:23:55;9.87;;;2.03;;
11614;SDS011;5863;52.832;4.758;2023-01-08T10:26:26;6.83;;;2.43;;
11614;SDS011;5863;52.832;4.758;2023-01-08T10:29:13;13.50;;;2.40;;
11614;SDS011;5863;52.832;4.758;2023-01-08T10:31:45;9.27;;;1.97;;
11614;SDS011;5863;52.832;4.758;2023-01-08T10:34:20;13.10;;;2.27;;
11614;SDS011;5863;52.832;4.758;2023-01-08T10:36:57;10.10;;;2.20;;
11614;SDS011;5863;52.832;4.758;2023-01-08T10:39:24;12.90;;;2.45;;
11614;SDS011;5863;52.832;4.758;2023-01-08T10:41:54;9.55;;;2.05;;
11614;SDS011;5863;52.832;4.758;2023-01-08T10:44:23;10.20;;;2.70;;
11614;SDS011;5863;52.832;4.758;2023-01-08T10:46:52;11.57;;;2.60;;
11614;SDS011;5863;52.832;4.758;2023-01-08T10:49:27;10.80;;;2.15;;
11614;SDS011;5863;52.832;4.758;2023-01-08T10:51:58;9.05;;;2.05;;
11614;SDS011;5863;52.832;4.758;2023-01-08T10:54:28;11.25;;;2.42;;
11614;SDS011;5863;52.832;4.758;2023-01-08T10:56:58;9.95;;;2.97;;
11614;SDS011;5863;52.832;4.758;2023-01-08T10:59:26;14.05;;;2.80;;
11614;SDS011;5863;52.832;4.758;2023-01-08T11:01:55;12.38;;;2.70;;
11614;SDS011;5863;52.832;4.758;2023-01-08T11:04:27;10.45;;;2.40;;
11614;SDS011;5863;52.832;4.758;2023-01-08T11:06:58;8.10;;;2.28;;
11614;SDS011;5863;52.832;4.758;2023-01-08T11:09:26;11.38;;;2.63;;
11614;SDS011;5863;52.832;4.758;2023-01-08T11:11:56;11.98;;;2.30;;
11614;SDS011;5863;52.832;4.758;2023-01-08T11:14:24;14.73;;;2.75;;
11614;SDS011;5863;52.832;4.758;2023-01-08T11:16:53;12.10;;;1.95;;
11614;SDS011;5863;52.832;4.758;2023-01-08T11:19:22;9.73;;;1.83;;
11614;SDS011;5863;52.832;4.758;2023-01-08T11:21:55;5.78;;;2.00;;
11614;SDS011;5863;52.832;4.758;2023-01-08T11:24:25;10.18;;;2.15;;
11614;SDS011;5863;52.832;4.758;2023-01-08T11:26:55;8.75;;;2.30;;
11614;SDS011;5863;52.832;4.758;2023-01-08T11:29:27;11.13;;;2.63;;
11614;SDS011;5863;52.832;4.758;2023-01-08T11:32:04;9.00;;;2.17;;
11614;SDS011;5863;52.832;4.758;2023-01-08T11:34:50;7.75;;;1.95;;
11614;SDS011;5863;52.832;4.758;2023-01-08T11:37:24;10.40;;;2.00;;
11614;SDS011;5863;52.832;4.758;2023-01-08T11:39:53;8.82;;;2.17;;
11614;SDS011;5863;52.832;4.758;2023-01-08T11:42:26;9.18;;;2.10;;
11614;SDS011;5863;52.832;4.758;2023-01-08T11:45:06;11.15;;;2.50;;
11614;SDS011;5863;52.832;4.758;2023-01-08T11:47:54;7.55;;;2.25;;
11614;SDS011;5863;52.832;4.758;2023-01-08T11:50:34;7.53;;;2.35;;
11614;SDS011;5863;52.832;4.758;2023-01-08T11:53:12;8.52;;;2.10;;
11614;SDS011;5863;52.832;4.758;2023-01-08T11:55:48;11.77;;;2.47;;
11614;SDS011;5863;52.832;4.758;2023-01-08T11:58:27;12.05;;;2.08;;
11614;SDS011;5863;52.832;4.758;2023-01-08T12:01:05;8.60;;;1.85;;
11614;SDS011;5863;52.832;4.758;2023-01-08T12:03:45;7.28;;;2.10;;
11614;SDS011;5863;52.832;4.758;2023-01-08T12:06:21;11.90;;;2.47;;
11614;SDS011;5863;52.832;4.758;2023-01-08T12:09:02;8.52;;;2.30;;
11614;SDS011;5863;52.832;4.758;2023-01-08T12:11:40;8.43;;;2.25;;
11614;SDS011;5863;52.832;4.758;2023-01-08T12:14:25;5.75;;;1.90;;
11614;SDS011;5863;52.832;4.758;2023-01-08T12:17:14;8.15;;;2.22;;
11614;SDS011;5863;52.832;4.758;2023-01-08T12:20:02;8.65;;;2.25;;
11614;SDS011;5863;52.832;4.758;2023-01-08T12:22:38;8.25;;;1.98;;
11614;SDS011;5863;52.832;4.758;2023-01-08T12:28:23;7.90;;;2.05;;
11614;SDS011;5863;52.832;4.758;2023-01-08T12:31:10;8.88;;;2.40;;
11614;SDS011;5863;52.832;4.758;2023-01-08T12:33:52;7.88;;;2.10;;
11614;SDS011;5863;52.832;4.758;2023-01-08T12:36:22;6.00;;;1.85;;
11614;SDS011;5863;52.832;4.758;2023-01-08T12:38:54;5.65;;;1.63;;
11614;SDS011;5863;52.832;4.758;2023-01-08T12:41:25;5.13;;;1.85;;
11614;SDS011;5863;52.832;4.758;2023-01-08T12:43:54;4.82;;;2.08;;
11614;SDS011;5863;52.832;4.758;2023-01-08T12:46:25;8.27;;;2.00;;
11614;SDS011;5863;52.832;4.758;2023-01-08T12:48:54;8.25;;;2.10;;
11614;SDS011;5863;52.832;4.758;2023-01-08T12:51:24;5.75;;;2.10;;
11614;SDS011;5863;52.832;4.758;2023-01-08T12:53:55;7.10;;;2.03;;
11614;SDS011;5863;52.832;4.758;2023-01-08T12:56:29;6.00;;;1.77;;
11614;SDS011;5863;52.832;4.758;2023-01-08T13:01:56;10.32;;;2.60;;
11614;SDS011;5863;52.832;4.758;2023-01-08T13:04:37;3.53;;;1.65;;
11614;SDS011;5863;52.832;4.758;2023-01-08T13:07:10;7.22;;;2.13;;
11614;SDS011;5863;52.832;4.758;2023-01-08T13:09:42;9.05;;;2.47;;
11614;SDS011;5863;52.832;4.758;2023-01-08T13:12:10;9.95;;;2.95;;
11614;SDS011;5863;52.832;4.758;2023-01-08T13:14:44;4.40;;;1.90;;
11614;SDS011;5863;52.832;4.758;2023-01-08T13:17:17;10.68;;;2.35;;
11614;SDS011;5863;52.832;4.758;2023-01-08T13:19:50;8.25;;;2.35;;
11614;SDS011;5863;52.832;4.758;2023-01-08T13:22:25;6.03;;;2.22;;
11614;SDS011;5863;52.832;4.758;2023-01-08T13:27:52;5.93;;;2.25;;
11614;SDS011;5863;52.832;4.758;2023-01-08T13:30:34;7.05;;;2.20;;
11614;SDS011;5863;52.832;4.758;2023-01-08T13:36:05;6.72;;;2.17;;
11614;SDS011;5863;52.832;4.758;2023-01-08T13:38:39;10.23;;;2.85;;
11614;SDS011;5863;52.832;4.758;2023-01-08T13:41:12;6.03;;;2.47;;
11614;SDS011;5863;52.832;4.758;2023-01-08T13:43:50;5.15;;;2.38;;
11614;SDS011;5863;52.832;4.758;2023-01-08T13:46:24;8.57;;;2.50;;
11614;SDS011;5863;52.832;4.758;2023-01-08T13:48:53;5.85;;;2.22;;
11614;SDS011;5863;52.832;4.758;2023-01-08T13:51:30;8.27;;;2.33;;
11614;SDS011;5863;52.832;4.758;2023-01-08T13:54:16;5.47;;;2.08;;
11614;SDS011;5863;52.832;4.758;2023-01-08T13:56:46;11.60;;;3.03;;
11614;SDS011;5863;52.832;4.758;2023-01-08T13:59:19;5.80;;;2.70;;
11614;SDS011;5863;52.832;4.758;2023-01-08T14:01:56;9.35;;;3.03;;
11614;SDS011;5863;52.832;4.758;2023-01-08T14:04:25;6.38;;;2.53;;
11614;SDS011;5863;52.832;4.758;2023-01-08T14:06:52;6.32;;;2.60;;
11614;SDS011;5863;52.832;4.758;2023-01-08T14:09:29;5.07;;;2.42;;
11614;SDS011;5863;52.832;4.758;2023-01-08T14:11:56;8.18;;;2.47;;
11614;SDS011;5863;52.832;4.758;2023-01-08T14:14:22;7.97;;;2.25;;
11614;SDS011;5863;52.832;4.758;2023-01-08T14:16:50;4.63;;;2.17;;
11614;SDS011;5863;52.832;4.758;2023-01-08T14:19:19;8.30;;;2.63;;
11614;SDS011;5863;52.832;4.758;2023-01-08T14:21:47;8.20;;;2.75;;
11614;SDS011;5863;52.832;4.758;2023-01-08T14:24:15;7.47;;;2.30;;
11614;SDS011;5863;52.832;4.758;2023-01-08T14:26:49;7.50;;;2.40;;
11614;SDS011;5863;52.832;4.758;2023-01-08T14:29:17;6.13;;;2.13;;
11614;SDS011;5863;52.832;4.758;2023-01-08T14:31:46;11.48;;;2.45;;
11614;SDS011;5863;52.832;4.758;2023-01-08T14:34:15;8.30;;;2.38;;
11614;SDS011;5863;52.832;4.758;2023-01-08T14:36:44;8.98;;;2.55;;
11614;SDS011;5863;52.832;4.758;2023-01-08T14:39:11;8.13;;;2.30;;
11614;SDS011;5863;52.832;4.758;2023-01-08T14:41:46;8.35;;;2.58;;
11614;SDS011;5863;52.832;4.758;2023-01-08T14:44:32;9.50;;;2.42;;
11614;SDS011;5863;52.832;4.758;2023-01-08T14:46:58;7.60;;;2.42;;
11614;SDS011;5863;52.832;4.758;2023-01-08T14:49:26;9.17;;;2.57;;
11614;SDS011;5863;52.832;4.758;2023-01-08T14:51:56;6.17;;;2.40;;
11614;SDS011;5863;52.832;4.758;2023-01-08T14:54:27;4.93;;;2.60;;
11614;SDS011;5863;52.832;4.758;2023-01-08T14:56:57;10.63;;;2.73;;
11614;SDS011;5863;52.832;4.758;2023-01-08T14:59:25;8.03;;;2.87;;
11614;SDS011;5863;52.832;4.758;2023-01-08T15:01:56;12.43;;;2.90;;
11614;SDS011;5863;52.832;4.758;2023-01-08T15:04:26;11.48;;;2.97;;
11614;SDS011;5863;52.832;4.758;2023-01-08T15:07:04;16.25;;;2.63;;
11614;SDS011;5863;52.832;4.758;2023-01-08T15:09:33;12.07;;;2.92;;
11614;SDS011;5863;52.832;4.758;2023-01-08T15:12:02;10.77;;;2.57;;
11614;SDS011;5863;52.832;4.758;2023-01-08T15:14:30;9.77;;;2.60;;
11614;SDS011;5863;52.832;4.758;2023-01-08T15:17:03;10.90;;;2.78;;
11614;SDS011;5863;52.832;4.758;2023-01-08T15:19:37;11.97;;;2.27;;